Time;durP1;ratioP1;P1;durP2;ratioP2;P2;SDS_P1;SDS_P2;PMS_P1;PMS_P2;Temp;Humidity;BMP_temperature;BMP_pressure;BME280_temperature;BME280_humidity;BME280_pressure;Samples;Min_cycle;Max_cycle;Signal;HPM_P1;HPM_P2
2023/09/24 00:02:19;;;;;;;0.93;0.85;;;;;;;16.46;80.38;99701.59;5075821;28;20075;-62
2023/09/24 00:04:49;;;;;;;1.88;1.05;;;;;;;16.46;80.25;99709.31;5075307;28;20128;-62
2023/09/24 00:07:19;;;;;;;1.80;1.57;;;;;;;16.45;80.22;99705.03;5075319;28;20048;-62
2023/09/24 00:09:48;;;;;;;0.65;0.65;;;;;;;16.41;79.77;99706.84;5075704;28;20067;-63
2023/09/24 00:12:17;;;;;;;0.60;0.60;;;;;;;16.42;79.70;99702.53;5075209;28;20041;-63
2023/09/24 00:14:46;;;;;;;1.00;0.70;;;;;;;16.44;79.32;99711.06;5075177;28;20360;-63
2023/09/24 00:17:17;;;;;;;3.40;1.07;;;;;;;16.45;78.97;99712.78;5074945;28;20044;-62
2023/09/24 00:19:47;;;;;;;0.77;0.77;;;;;;;16.42;78.65;99715.41;5075137;28;20273;-63
2023/09/24 00:22:15;;;;;;;1.55;1.00;;;;;;;16.41;78.74;99716.31;5075313;28;20114;-63
2023/09/24 00:24:46;;;;;;;1.50;1.03;;;;;;;16.37;78.35;99704.38;5075066;28;20041;-66
2023/09/24 00:27:15;;;;;;;0.70;0.70;;;;;;;16.39;77.87;99707.75;5074982;28;20041;-63
2023/09/24 00:29:44;;;;;;;1.20;1.10;;;;;;;16.35;77.33;99708.72;5074910;28;20404;-63
2023/09/24 00:32:13;;;;;;;1.20;0.70;;;;;;;16.33;77.36;99705.34;5074846;28;20063;-63
2023/09/24 00:34:43;;;;;;;0.55;0.55;;;;;;;16.31;77.12;99713.09;5075030;28;20389;-64
2023/09/24 00:37:12;;;;;;;1.35;1.00;;;;;;;16.31;77.05;99713.09;5074102;28;20463;-62
2023/09/24 00:39:41;;;;;;;0.73;0.70;;;;;;;16.33;76.47;99713.91;5075472;28;20048;-63
2023/09/24 00:42:12;;;;;;;0.60;0.60;;;;;;;16.33;76.52;99718.22;5074469;28;20056;-63
2023/09/24 00:44:42;;;;;;;4.38;1.15;;;;;;;16.35;76.08;99716.44;5074667;28;20105;-63
2023/09/24 00:47:11;;;;;;;0.93;0.93;;;;;;;16.34;75.96;99714.78;5074527;28;20075;-63
2023/09/24 00:49:43;;;;;;;0.77;0.75;;;;;;;16.35;75.76;99721.59;5075020;28;20455;-63
2023/09/24 00:52:13;;;;;;;0.80;0.70;;;;;;;16.28;75.52;99715.75;5074713;28;20458;-63
2023/09/24 00:54:44;;;;;;;2.13;1.20;;;;;;;16.28;75.41;99709.75;5074382;28;20053;-63
2023/09/24 00:57:14;;;;;;;0.55;0.55;;;;;;;16.28;75.60;99707.16;5074371;28;20102;-63
2023/09/24 00:59:45;;;;;;;1.35;0.90;;;;;;;16.23;75.47;99724.47;5074929;28;20047;-63
2023/09/24 01:02:16;;;;;;;0.75;0.60;;;;;;;16.21;76.02;99732.22;5074925;28;20090;-63
2023/09/24 01:04:47;;;;;;;0.60;0.60;;;;;;;16.19;76.07;99740.88;5073112;28;20066;-63
2023/09/24 01:07:17;;;;;;;0.65;0.65;;;;;;;16.17;75.82;99743.50;5074063;28;20048;-62
2023/09/24 01:09:47;;;;;;;0.80;0.68;;;;;;;16.14;75.95;99732.41;5072891;28;20056;-63
2023/09/24 01:12:22;;;;;;;0.60;0.60;;;;;;;16.14;75.53;99737.53;5074476;28;20450;-63
2023/09/24 01:14:53;;;;;;;1.73;0.90;;;;;;;16.13;75.83;99741.00;5074028;28;20123;-63
2023/09/24 01:17:23;;;;;;;0.75;0.60;;;;;;;16.13;75.91;99756.44;5073990;28;20121;-63
2023/09/24 01:19:53;;;;;;;0.70;0.70;;;;;;;16.05;76.07;99757.47;5073027;28;20049;-63
2023/09/24 01:22:23;;;;;;;;;;;;;;;15.97;76.43;99758.50;5074652;28;20037;-63
2023/09/24 01:24:55;;;;;;;1.15;1.05;;;;;;;15.93;76.77;99759.47;5072659;28;19967;-64
2023/09/24 01:27:24;;;;;;;0.93;0.93;;;;;;;15.86;77.04;99756.16;5073806;28;20048;-63
2023/09/24 01:29:56;;;;;;;0.73;0.73;;;;;;;15.83;77.00;99758.81;5073862;28;20496;-63
2023/09/24 01:32:25;;;;;;;1.10;0.90;;;;;;;15.84;77.43;99755.34;5072603;28;20496;-63
2023/09/24 01:34:55;;;;;;;0.43;0.43;;;;;;;15.83;77.70;99763.97;5056145;28;20392;-63
2023/09/24 01:37:25;;;;;;;0.60;0.60;;;;;;;15.81;77.70;99764.88;5073757;28;20066;-62
2023/09/24 01:39:55;;;;;;;0.50;0.50;;;;;;;15.78;77.53;99776.06;5072491;28;20044;-63
2023/09/24 01:42:24;;;;;;;0.70;0.70;;;;;;;15.79;77.69;99782.91;5073377;28;20128;-63
2023/09/24 01:44:53;;;;;;;0.47;0.47;;;;;;;15.80;77.58;99778.59;5073606;28;20098;-63
2023/09/24 01:47:23;;;;;;;2.97;0.70;;;;;;;15.75;77.75;99785.56;5073588;28;20037;-63
2023/09/24 01:49:52;;;;;;;;;;;;;;;15.67;77.97;99788.28;5072594;28;20071;-63
2023/09/24 01:52:20;;;;;;;0.40;0.40;;;;;;;15.63;77.85;99776.38;5073597;28;20386;-64
2023/09/24 01:54:51;;;;;;;0.50;0.50;;;;;;;15.60;77.95;99780.72;5073475;28;20049;-63
2023/09/24 01:57:20;;;;;;;0.60;0.60;;;;;;;15.57;78.38;99767.94;5072625;28;20048;-62
2023/09/24 01:59:49;;;;;;;0.40;0.40;;;;;;;15.56;78.29;99768.78;5072164;28;20059;-63
2023/09/24 02:02:18;;;;;;;0.70;0.70;;;;;;;15.54;78.63;99773.97;5072227;28;20040;-62
2023/09/24 02:04:48;;;;;;;0.80;0.80;;;;;;;15.53;78.33;99769.69;5072232;28;20037;-63
2023/09/24 02:07:17;;;;;;;0.73;0.73;;;;;;;15.55;78.60;99787.69;5073447;28;20281;-63
2023/09/24 02:09:46;;;;;;;0.40;0.40;;;;;;;15.51;78.51;99780.91;5073486;28;20472;-63
2023/09/24 02:12:16;;;;;;;1.75;0.60;;;;;;;15.45;78.86;99784.47;5073385;28;20045;-63
2023/09/24 02:14:45;;;;;;;0.73;0.73;;;;;;;15.44;78.75;99780.13;5073764;28;20075;-62
2023/09/24 02:17:14;;;;;;;0.80;0.75;;;;;;;15.41;79.16;99778.47;5073298;28;20055;-62
2023/09/24 02:19:44;;;;;;;0.40;0.40;;;;;;;15.45;78.87;99779.31;5072795;28;20044;-63
2023/09/24 02:22:13;;;;;;;0.45;0.45;;;;;;;15.41;79.05;99775.03;5073356;28;20056;-63
2023/09/24 02:24:43;;;;;;;0.50;0.50;;;;;;;15.39;78.92;99782.81;5073269;28;20064;-65
2023/09/24 02:27:13;;;;;;;2.15;1.45;;;;;;;15.40;78.93;99769.03;5073219;28;20060;-63
2023/09/24 02:29:43;;;;;;;0.40;0.40;;;;;;;15.37;79.14;99773.41;5073018;28;20059;-63
2023/09/24 02:32:13;;;;;;;2.15;1.50;;;;;;;15.35;79.16;99764.88;5073166;28;20070;-63
2023/09/24 02:34:44;;;;;;;0.60;0.60;;;;;;;15.34;78.70;99765.75;5072512;28;20120;-63
2023/09/24 02:37:14;;;;;;;1.27;0.93;;;;;;;15.30;78.76;99771.84;5071897;28;20041;-64
2023/09/24 02:39:44;;;;;;;0.40;0.40;;;;;;;15.31;78.72;99773.50;5073400;28;20123;-62
2023/09/24 02:42:12;;;;;;;0.43;0.43;;;;;;;15.29;78.45;99780.41;5075402;28;20038;-62
2023/09/24 02:44:44;;;;;;;1.63;1.27;;;;;;;15.29;78.42;99776.13;5076929;28;20170;-63
2023/09/24 02:47:14;;;;;;;0.75;0.57;;;;;;;15.27;78.66;99782.16;5076907;28;20045;-63
2023/09/24 02:49:43;;;;;;;0.70;0.70;;;;;;;15.21;78.76;99779.72;5075690;28;20492;-63
2023/09/24 02:52:13;;;;;;;0.35;0.35;;;;;;;15.17;78.91;99778.06;5076655;28;20037;-63
2023/09/24 02:54:43;;;;;;;0.88;0.82;;;;;;;15.11;78.71;99770.47;5077038;28;20131;-62
2023/09/24 02:57:12;;;;;;;0.50;0.50;;;;;;;15.11;78.69;99767.91;5076623;28;20041;-63
2023/09/24 02:59:41;;;;;;;0.70;0.70;;;;;;;15.07;78.94;99763.69;5076959;28;20051;-63
2023/09/24 03:02:11;;;;;;;0.50;0.50;;;;;;;15.08;78.96;99767.94;5075583;28;20373;-63
2023/09/24 03:04:40;;;;;;;0.60;0.60;;;;;;;15.10;79.19;99776.47;5076560;28;20051;-63
2023/09/24 03:07:10;;;;;;;0.60;0.60;;;;;;;15.11;79.24;99780.75;5075366;28;20094;-63
2023/09/24 03:09:40;;;;;;;0.60;0.60;;;;;;;15.06;78.53;99785.13;5076429;28;20071;-62
2023/09/24 03:12:09;;;;;;;0.60;0.60;;;;;;;15.05;78.65;99791.13;5076295;28;20101;-63
2023/09/24 03:14:38;;;;;;;0.68;0.68;;;;;;;15.05;78.47;99781.69;5075484;28;20036;-63
2023/09/24 03:17:07;;;;;;;2.17;0.70;;;;;;;15.05;78.38;99778.28;5075213;28;20097;-62
2023/09/24 03:19:37;;;;;;;0.60;0.60;;;;;;;15.05;78.17;99770.56;5076218;28;20040;-62
2023/09/24 03:22:07;;;;;;;1.77;1.58;;;;;;;15.03;77.96;99782.59;5075290;28;20523;-63
2023/09/24 03:24:36;;;;;;;;;;;;;;;15.03;77.40;99785.16;5076937;28;20519;-62
2023/09/24 03:27:05;;;;;;;0.40;0.40;;;;;;;15.06;77.46;99783.41;5075049;28;20009;-65
2023/09/24 03:29:34;;;;;;;0.50;0.50;;;;;;;15.07;76.98;99797.13;5076061;28;20492;-63
2023/09/24 03:32:04;;;;;;;0.40;0.40;;;;;;;15.07;76.53;99804.84;5074745;28;20044;-63
2023/09/24 03:34:34;;;;;;;0.52;0.52;;;;;;;15.11;76.20;99814.19;5076255;28;20052;-63
2023/09/24 03:37:05;;;;;;;0.60;0.60;;;;;;;15.13;75.84;99809.84;5074740;28;20044;-62
2023/09/24 03:39:34;;;;;;;0.40;0.40;;;;;;;15.14;75.72;99817.53;5074987;28;20404;-62
2023/09/24 03:42:03;;;;;;;0.60;0.60;;;;;;;15.15;75.45;99810.66;5075870;28;20396;-63
2023/09/24 03:44:32;;;;;;;0.52;0.52;;;;;;;15.15;75.54;99813.25;5074682;28;20049;-63
2023/09/24 03:47:01;;;;;;;;;;;;;;;15.19;75.41;99809.72;5074967;28;20072;-62
2023/09/24 03:49:30;;;;;;;0.88;0.88;;;;;;;15.19;75.32;99804.59;5074541;28;19970;-63
2023/09/24 03:51:59;;;;;;;0.40;0.40;;;;;;;15.18;75.30;99802.91;5074052;28;20489;-62
2023/09/24 03:54:31;;;;;;;0.50;0.50;;;;;;;15.18;75.03;99797.78;5074787;28;20079;-62
2023/09/24 03:57:00;;;;;;;0.40;0.40;;;;;;;15.22;74.55;99804.53;5075651;28;20507;-62
2023/09/24 03:59:29;;;;;;;0.60;0.60;;;;;;;15.23;74.77;99801.09;5074629;28;20443;-62
2023/09/24 04:02:00;;;;;;;1.52;0.93;;;;;;;15.23;74.42;99803.69;5075532;28;20382;-62
2023/09/24 04:04:30;;;;;;;0.95;0.95;;;;;;;15.20;74.46;99819.16;5075703;28;20079;-61
2023/09/24 04:06:59;;;;;;;0.50;0.50;;;;;;;15.20;74.20;99811.44;5074392;28;20488;-62
2023/09/24 04:09:32;;;;;;;0.43;0.43;;;;;;;15.20;74.34;99806.28;5075859;28;20033;-62
2023/09/24 04:12:02;;;;;;;0.40;0.40;;;;;;;15.19;74.03;99787.44;5075612;28;20289;-62
2023/09/24 04:14:32;;;;;;;1.00;0.90;;;;;;;15.19;73.89;99794.31;5075214;28;20106;-62
2023/09/24 04:17:02;;;;;;;0.50;0.50;;;;;;;15.18;74.06;99792.63;5075266;28;20044;-62
2023/09/24 04:19:33;;;;;;;0.63;0.63;;;;;;;15.19;73.69;99804.59;5075462;28;20048;-61
2023/09/24 04:22:02;;;;;;;0.52;0.52;;;;;;;15.21;73.97;99802.88;5075488;28;20145;-62
2023/09/24 04:24:30;;;;;;;0.60;0.60;;;;;;;15.19;73.94;99804.59;5075030;28;20101;-62
2023/09/24 04:27:00;;;;;;;0.50;0.50;;;;;;;15.20;73.46;99816.59;5075302;28;20064;-62
2023/09/24 04:29:30;;;;;;;0.95;0.80;;;;;;;15.20;73.39;99811.44;5075163;28;20480;-62
2023/09/24 04:31:59;;;;;;;0.50;0.50;;;;;;;15.23;73.81;99801.09;5074976;28;20094;-62
2023/09/24 04:34:28;;;;;;;0.40;0.40;;;;;;;15.22;73.41;99809.69;5074740;28;20119;-63
2023/09/24 04:36:57;;;;;;;0.40;0.40;;;;;;;15.24;73.08;99813.06;5074809;28;20045;-61
2023/09/24 04:39:26;;;;;;;0.67;0.60;;;;;;;15.19;73.55;99818.31;5074734;28;20364;-62
2023/09/24 04:41:54;;;;;;;0.50;0.50;;;;;;;15.17;73.84;99839.75;5074629;28;20048;-62
2023/09/24 04:44:23;;;;;;;0.53;0.53;;;;;;;15.11;74.44;99845.03;5073291;28;20484;-62
2023/09/24 04:46:54;;;;;;;0.40;0.40;;;;;;;15.07;74.25;99838.25;5074465;28;20282;-64
2023/09/24 04:49:24;;;;;;;1.02;1.00;;;;;;;15.04;74.70;99825.44;5074504;28;20049;-61
2023/09/24 04:51:53;;;;;;;0.60;0.60;;;;;;;15.00;74.43;99834.06;5074507;28;20128;-62
2023/09/24 04:54:22;;;;;;;0.70;0.70;;;;;;;15.01;74.45;99840.91;5074400;28;20047;-62
2023/09/24 04:56:52;;;;;;;0.47;0.47;;;;;;;15.01;74.72;99846.03;5074303;28;20097;-65
2023/09/24 04:59:21;;;;;;;0.60;0.60;;;;;;;15.03;74.55;99854.56;5074734;28;20339;-63
2023/09/24 05:01:50;;;;;;;0.40;0.40;;;;;;;15.02;74.38;99850.31;5074568;28;20511;-63
2023/09/24 05:04:21;;;;;;;0.30;0.30;;;;;;;15.03;74.60;99854.56;5073841;28;20140;-63
2023/09/24 05:06:51;;;;;;;0.40;0.40;;;;;;;15.03;74.48;99854.56;5074181;28;20048;-63
2023/09/24 05:09:20;;;;;;;0.40;0.40;;;;;;;15.04;74.40;99851.16;5074185;28;20052;-62
2023/09/24 05:11:49;;;;;;;0.45;0.45;;;;;;;15.06;73.92;99849.41;5074412;28;20328;-61
2023/09/24 05:14:19;;;;;;;0.40;0.40;;;;;;;15.10;74.02;99853.59;5074133;28;20098;-61
2023/09/24 05:16:51;;;;;;;0.40;0.40;;;;;;;15.12;73.60;99854.41;5074508;28;20289;-61
2023/09/24 05:19:22;;;;;;;0.40;0.40;;;;;;;15.09;73.96;99850.16;5074294;28;20048;-63
2023/09/24 05:21:51;;;;;;;0.90;0.88;;;;;;;15.06;73.92;99855.38;5073576;28;20052;-63
2023/09/24 05:24:20;;;;;;;0.57;0.57;;;;;;;15.07;73.66;99856.25;5073799;28;20049;-62
2023/09/24 05:26:48;;;;;;;0.30;0.30;;;;;;;15.10;74.06;99861.31;5073753;28;20040;-62
2023/09/24 05:29:17;;;;;;;0.50;0.50;;;;;;;15.10;74.00;99866.47;5073835;28;20281;-62
2023/09/24 05:31:46;;;;;;;0.30;0.30;;;;;;;15.08;73.95;99870.78;5073667;28;20301;-62
2023/09/24 05:34:16;;;;;;;0.50;0.50;;;;;;;15.08;73.83;99873.34;5073738;28;20560;-63
2023/09/24 05:36:46;;;;;;;0.60;0.60;;;;;;;15.09;74.10;99865.59;5073678;28;20059;-61
2023/09/24 05:39:16;;;;;;;0.73;0.73;;;;;;;15.09;73.85;99875.06;5073729;28;20511;-62
2023/09/24 05:41:44;;;;;;;0.65;0.65;;;;;;;15.05;73.68;99879.38;5073581;28;20075;-62
2023/09/24 05:44:16;;;;;;;0.40;0.40;;;;;;;15.08;73.92;99883.63;5073509;28;20056;-62
2023/09/24 05:46:45;;;;;;;0.60;0.60;;;;;;;15.11;73.54;99868.16;5073592;28;20143;-62
2023/09/24 05:49:14;;;;;;;0.50;0.50;;;;;;;15.12;73.21;99875.00;5073576;28;20119;-61
2023/09/24 05:51:42;;;;;;;0.50;0.50;;;;;;;15.14;73.31;99888.69;5073540;28;20063;-61
2023/09/24 05:54:13;;;;;;;0.40;0.40;;;;;;;15.12;73.07;99885.28;5073511;28;20036;-61
2023/09/24 05:56:43;;;;;;;0.50;0.50;;;;;;;15.12;72.82;99890.41;5072607;28;20047;-63
2023/09/24 05:59:12;;;;;;;0.60;0.60;;;;;;;15.09;72.79;99890.50;5073495;28;20492;-63
2023/09/24 06:01:42;;;;;;;0.40;0.40;;;;;;;15.08;72.83;99899.06;5073710;28;20033;-61
2023/09/24 06:04:11;;;;;;;0.40;0.40;;;;;;;15.05;72.99;99899.09;5073744;28;20444;-64
2023/09/24 06:06:42;;;;;;;0.38;0.38;;;;;;;15.02;73.10;99904.31;5073755;28;20064;-61
2023/09/24 06:09:10;;;;;;;0.50;0.50;;;;;;;15.00;73.64;99911.16;5073698;28;20072;-63
2023/09/24 06:11:45;;;;;;;0.73;0.63;;;;;;;14.98;74.02;99918.06;5073304;28;20044;-62
2023/09/24 06:14:14;;;;;;;0.30;0.30;;;;;;;14.98;73.96;99915.47;5073299;28;20037;-65
2023/09/24 06:16:43;;;;;;;0.40;0.40;;;;;;;14.98;73.80;99923.19;5075219;28;20064;-61
2023/09/24 06:19:12;;;;;;;0.68;0.68;;;;;;;14.98;73.80;99925.75;5077508;28;20086;-61
2023/09/24 06:21:42;;;;;;;0.47;0.47;;;;;;;14.98;73.95;99946.34;5077351;28;20040;-63
2023/09/24 06:24:10;;;;;;;0.40;0.40;;;;;;;14.97;74.07;99942.09;5077417;28;20522;-62
2023/09/24 06:26:40;;;;;;;0.40;0.40;;;;;;;14.99;74.16;99951.47;5077482;28;20115;-62
2023/09/24 06:29:11;;;;;;;0.73;0.73;;;;;;;14.97;74.29;99947.22;5077554;28;20112;-62
2023/09/24 06:31:40;;;;;;;0.43;0.43;;;;;;;14.94;74.36;99953.25;5077388;28;20567;-62
2023/09/24 06:34:09;;;;;;;1.50;0.70;;;;;;;14.92;74.65;99964.44;5077490;28;20066;-62
2023/09/24 06:36:38;;;;;;;0.50;0.50;;;;;;;14.92;74.96;99959.28;5077035;28;20278;-61
2023/09/24 06:39:10;;;;;;;0.47;0.47;;;;;;;14.91;74.79;99962.72;5077016;28;20045;-64
2023/09/24 06:41:39;;;;;;;0.30;0.30;;;;;;;14.86;75.30;99965.34;5077313;28;20381;-61
2023/09/24 06:44:11;;;;;;;0.60;0.60;;;;;;;14.85;75.39;99967.94;5075317;28;20049;-62
2023/09/24 06:46:41;;;;;;;0.57;0.57;;;;;;;14.81;76.01;99971.41;5077209;28;20048;-62
2023/09/24 06:49:10;;;;;;;4.88;1.25;;;;;;;14.80;76.13;99974.88;5077038;28;20062;-63
2023/09/24 06:51:40;;;;;;;0.55;0.55;;;;;;;14.78;76.01;99983.44;5076976;28;20062;-62
2023/09/24 06:54:08;;;;;;;0.40;0.40;;;;;;;14.77;76.65;99986.88;5076608;28;20040;-61
2023/09/24 06:56:37;;;;;;;0.40;0.40;;;;;;;14.75;76.72;99993.78;5076615;28;20048;-62
2023/09/24 06:59:09;;;;;;;0.50;0.50;;;;;;;14.77;77.16;100002.31;5076601;28;20136;-62
2023/09/24 07:01:42;;;;;;;0.40;0.40;;;;;;;14.75;77.32;100004.06;5076870;28;20052;-63
2023/09/24 07:04:11;;;;;;;0.50;0.50;;;;;;;14.75;77.43;100014.31;5076906;28;20131;-61
2023/09/24 07:06:40;;;;;;;0.75;0.75;;;;;;;14.70;77.82;100021.25;5076462;28;20102;-61
2023/09/24 07:09:10;;;;;;;2.35;0.98;;;;;;;14.67;77.99;100016.13;5076435;28;20048;-61
2023/09/24 07:11:39;;;;;;;0.40;0.40;;;;;;;14.66;78.18;100014.41;5076570;28;20075;-63
2023/09/24 07:14:08;;;;;;;0.50;0.50;;;;;;;14.64;78.58;100020.44;5076279;28;20033;-63
2023/09/24 07:16:40;;;;;;;0.68;0.68;;;;;;;14.62;78.81;100023.03;5076738;28;20584;-62
2023/09/24 07:19:09;;;;;;;0.50;0.50;;;;;;;14.61;78.83;100021.31;5076294;28;20055;-62
2023/09/24 07:21:38;;;;;;;0.57;0.57;;;;;;;14.59;79.09;100023.06;5076247;28;20519;-62
2023/09/24 07:24:07;;;;;;;0.60;0.60;;;;;;;14.60;79.65;100024.78;5076095;28;20045;-62
2023/09/24 07:26:36;;;;;;;0.68;0.68;;;;;;;14.61;79.40;100015.38;5076072;28;20507;-61
2023/09/24 07:29:05;;;;;;;0.40;0.40;;;;;;;14.62;79.87;100023.03;5076092;28;20056;-62
2023/09/24 07:31:34;;;;;;;0.70;0.70;;;;;;;14.64;80.26;100025.56;5075933;28;20044;-63
2023/09/24 07:34:06;;;;;;;0.40;0.40;;;;;;;14.60;80.14;100029.91;5075923;28;20124;-62
2023/09/24 07:36:36;;;;;;;0.40;0.40;;;;;;;14.57;80.52;100035.09;5076018;28;20048;-62
2023/09/24 07:39:24;;;;;;;0.40;0.40;;;;;;;14.59;80.86;100038.47;5075990;28;20503;-62
2023/09/24 07:41:53;;;;;;;0.50;0.50;;;;;;;14.60;80.87;100042.75;5074824;28;20147;-62
2023/09/24 07:44:22;;;;;;;0.40;0.40;;;;;;;14.62;81.06;100042.72;5075585;28;20281;-63
2023/09/24 07:46:51;;;;;;;0.93;0.70;;;;;;;14.61;81.01;100047.00;5075759;28;20052;-62
2023/09/24 07:49:21;;;;;;;0.47;0.47;;;;;;;14.63;81.58;100045.31;5075959;28;20313;-63
2023/09/24 07:51:50;;;;;;;0.40;0.40;;;;;;;14.63;81.81;100055.59;5074637;28;20040;-63
2023/09/24 07:54:19;;;;;;;1.25;1.15;;;;;;;14.64;81.90;100067.53;5076069;28;20086;-60
2023/09/24 07:56:48;;;;;;;0.75;0.75;;;;;;;14.61;81.77;100066.75;5075714;28;20040;-62
2023/09/24 07:59:16;;;;;;;0.55;0.55;;;;;;;14.63;81.50;100076.13;5076026;28;20514;-63
2023/09/24 08:01:45;;;;;;;0.60;0.60;;;;;;;14.64;81.79;100075.25;5075810;28;20499;-62
2023/09/24 08:04:14;;;;;;;0.63;0.63;;;;;;;14.65;82.03;100079.53;5075312;28;20045;-63
2023/09/24 08:06:46;;;;;;;0.60;0.60;;;;;;;14.64;82.22;100082.97;5075359;28;20048;-63
2023/09/24 08:09:15;;;;;;;0.52;0.52;;;;;;;14.65;82.12;100079.53;5075724;28;20132;-62
2023/09/24 08:11:55;;;;;;;1.20;0.80;;;;;;;14.64;82.07;100082.97;5075580;28;20499;-63
2023/09/24 08:14:24;;;;;;;;;;;;;;;14.63;82.37;100086.41;5075978;28;20044;-62
2023/09/24 08:16:54;;;;;;;0.65;0.65;;;;;;;14.63;82.39;100086.41;5075307;28;20023;-63
2023/09/24 08:19:26;;;;;;;0.63;0.63;;;;;;;14.66;82.33;100082.97;5075451;28;20040;-63
2023/09/24 08:21:56;;;;;;;0.75;0.75;;;;;;;14.63;82.35;100088.97;5074114;28;20074;-63
2023/09/24 08:24:25;;;;;;;0.70;0.70;;;;;;;14.66;82.48;100085.53;5075020;28;20132;-63
2023/09/24 08:26:53;;;;;;;0.63;0.63;;;;;;;14.67;82.21;100090.63;5075299;28;20501;-63
2023/09/24 08:29:22;;;;;;;0.90;0.85;;;;;;;14.63;82.20;100095.81;5075170;28;20123;-65
2023/09/24 08:31:51;;;;;;;0.47;0.47;;;;;;;14.61;82.81;100093.25;5074874;28;20036;-63
2023/09/24 08:34:20;;;;;;;0.40;0.40;;;;;;;14.60;83.02;100094.16;5074862;28;20044;-63
2023/09/24 08:36:49;;;;;;;0.50;0.50;;;;;;;14.64;82.71;100097.50;5074764;28;20109;-63
2023/09/24 08:39:19;;;;;;;0.50;0.50;;;;;;;14.64;83.27;100105.22;5074002;28;20036;-63
2023/09/24 08:41:49;;;;;;;0.50;0.50;;;;;;;14.64;83.14;100103.50;5074911;28;20496;-63
2023/09/24 08:44:18;;;;;;;0.40;0.40;;;;;;;14.65;82.85;100107.78;5074397;28;20055;-63
2023/09/24 08:46:50;;;;;;;;;;;;;;;14.70;83.31;100106.03;5075026;28;20045;-64
2023/09/24 08:49:20;;;;;;;0.50;0.50;;;;;;;14.75;83.36;100101.69;5074892;28;19920;-63
2023/09/24 08:51:50;;;;;;;0.52;0.52;;;;;;;14.75;83.36;100103.41;5074361;28;20076;-63
2023/09/24 08:54:20;;;;;;;0.50;0.50;;;;;;;14.74;83.07;100110.25;5073594;28;20036;-63
2023/09/24 08:56:49;;;;;;;0.47;0.47;;;;;;;14.81;83.02;100111.03;5074436;28;20044;-63
2023/09/24 08:59:18;;;;;;;0.50;0.50;;;;;;;14.77;82.75;100110.25;5075081;28;20045;-63
2023/09/24 09:01:54;;;;;;;0.68;0.68;;;;;;;14.76;82.81;100123.94;5074852;28;20040;-64
2023/09/24 09:04:23;;;;;;;0.40;0.40;;;;;;;14.76;83.10;100126.50;5074525;28;20052;-63
2023/09/24 09:06:55;;;;;;;0.50;0.50;;;;;;;14.79;83.47;100117.91;5074223;28;20075;-62
2023/09/24 09:09:27;;;;;;;1.05;0.77;;;;;;;14.85;83.62;100117.88;5074421;28;20050;-63
2023/09/24 09:11:56;;;;;;;0.70;0.70;;;;;;;14.87;83.72;100105.00;5074125;28;20084;-65
2023/09/24 09:14:35;;;;;;;0.82;0.60;;;;;;;14.87;83.52;100100.69;5074319;28;20036;-63
2023/09/24 09:17:04;;;;;;;0.93;0.73;;;;;;;14.88;83.54;100101.53;5074443;28;20098;-62
2023/09/24 09:19:53;;;;;;;0.47;0.47;;;;;;;14.90;83.47;100102.38;5072841;28;20056;-63
2023/09/24 09:22:24;;;;;;;0.43;0.43;;;;;;;14.92;83.72;100098.94;5073936;28;20041;-63
2023/09/24 09:25:05;;;;;;;0.32;0.32;;;;;;;14.92;83.56;100091.22;5073930;28;20512;-62
2023/09/24 09:27:34;;;;;;;0.40;0.40;;;;;;;14.93;83.72;100090.34;5073782;28;20122;-63
2023/09/24 09:30:12;;;;;;;0.40;0.40;;;;;;;14.94;83.49;100086.06;5073845;28;20123;-65
2023/09/24 09:32:42;;;;;;;0.63;0.63;;;;;;;14.96;83.67;100089.44;5074070;28;20041;-62
2023/09/24 09:35:11;;;;;;;0.50;0.50;;;;;;;14.97;83.45;100080.88;5073697;28;20048;-62
2023/09/24 09:37:41;;;;;;;0.40;0.40;;;;;;;15.00;83.67;100086.81;5073732;28;20043;-63
2023/09/24 09:40:14;;;;;;;0.85;0.85;;;;;;;15.00;83.33;100085.97;5073719;28;20052;-61
2023/09/24 09:42:44;;;;;;;0.65;0.65;;;;;;;14.98;83.57;100098.00;5073875;28;20051;-62
2023/09/24 09:45:13;;;;;;;;;;;;;;;14.97;83.05;100102.28;5074305;28;20045;-62
2023/09/24 09:48:02;;;;;;;0.47;0.47;;;;;;;15.03;83.28;100101.34;5073634;28;20000;-63
2023/09/24 09:50:35;;;;;;;0.50;0.50;;;;;;;15.15;83.31;100107.22;5073551;28;20281;-61
2023/09/24 09:53:07;;;;;;;0.55;0.55;;;;;;;15.16;83.06;100105.50;5073447;28;20048;-62
2023/09/24 09:55:42;;;;;;;0.57;0.57;;;;;;;15.12;82.51;100103.81;5073858;28;20067;-62
2023/09/24 09:58:12;;;;;;;1.02;0.88;;;;;;;15.12;82.68;100096.97;5073398;28;20492;-62
2023/09/24 10:00:54;;;;;;;0.43;0.43;;;;;;;15.18;82.80;100102.03;5073679;28;20488;-62
2023/09/24 10:03:24;;;;;;;0.40;0.40;;;;;;;15.22;82.52;100102.84;5073774;28;20494;-62
2023/09/24 10:05:55;;;;;;;0.40;0.40;;;;;;;15.24;82.70;100106.22;5073399;28;20048;-63
2023/09/24 10:08:36;;;;;;;0.45;0.45;;;;;;;15.25;82.36;100101.09;5073422;28;20098;-62
2023/09/24 10:11:08;;;;;;;0.60;0.60;;;;;;;15.30;82.45;100093.31;5073407;28;20049;-62
2023/09/24 10:13:49;;;;;;;0.30;0.30;;;;;;;15.34;82.49;100093.25;5073274;28;20114;-63
2023/09/24 10:16:29;;;;;;;0.50;0.50;;;;;;;15.33;82.00;100101.00;5073379;28;20048;-62
2023/09/24 10:19:01;;;;;;;0.60;0.60;;;;;;;15.36;82.28;100100.94;5073300;28;20048;-62
2023/09/24 10:21:32;;;;;;;0.50;0.50;;;;;;;15.40;82.26;100097.47;5073299;28;20045;-62
2023/09/24 10:24:32;;;;;;;1.95;0.75;;;;;;;15.38;82.18;100101.75;5073188;28;20045;-62
2023/09/24 10:27:03;;;;;;;0.77;0.77;;;;;;;15.35;82.34;100100.09;5073035;28;20033;-64
2023/09/24 10:29:55;;;;;;;0.40;0.40;;;;;;;15.33;82.19;100106.13;5073087;28;20103;-63
2023/09/24 10:32:26;;;;;;;0.50;0.50;;;;;;;15.32;82.77;100112.13;5072212;28;20052;-62
2023/09/24 10:35:11;;;;;;;1.27;1.17;;;;;;;15.37;82.71;100118.94;5073125;28;20043;-63
2023/09/24 10:38:04;;;;;;;0.95;0.88;;;;;;;15.36;82.82;100116.38;5073058;28;20045;-62
2023/09/24 10:40:34;;;;;;;0.50;0.50;;;;;;;15.39;83.41;100116.31;5072880;28;20427;-63
2023/09/24 10:43:20;;;;;;;0.50;0.50;;;;;;;15.34;83.57;100118.09;5072568;28;20049;-63
2023/09/24 10:45:49;;;;;;;1.02;0.80;;;;;;;15.33;83.34;100121.56;5072424;28;20040;-62
2023/09/24 10:48:19;;;;;;;0.40;0.40;;;;;;;15.36;83.27;100116.38;5072031;28;20094;-63
2023/09/24 10:51:07;;;;;;;0.50;0.50;;;;;;;15.34;84.00;100115.53;5072199;28;20163;-63
2023/09/24 10:53:36;;;;;;;0.40;0.40;;;;;;;15.30;84.12;100111.31;5072225;28;20045;-62
2023/09/24 10:56:10;;;;;;;0.98;0.77;;;;;;;15.29;84.05;100125.03;5071920;28;20040;-63
2023/09/24 10:58:49;;;;;;;0.50;0.50;;;;;;;15.32;84.46;100122.44;5071940;28;20044;-63
2023/09/24 11:01:32;;;;;;;0.63;0.63;;;;;;;15.30;84.57;100121.59;5071964;28;20058;-63
2023/09/24 11:04:02;;;;;;;0.43;0.43;;;;;;;15.36;85.08;100119.78;5074097;28;20048;-65
2023/09/24 11:06:31;;;;;;;0.95;0.70;;;;;;;15.37;85.38;100113.78;5073850;28;20083;-63
2023/09/24 11:09:15;;;;;;;0.57;0.57;;;;;;;15.28;85.16;100115.63;5074696;28;20045;-66
2023/09/24 11:11:45;;;;;;;0.45;0.45;;;;;;;15.25;85.33;100119.09;5075488;28;20064;-64
2023/09/24 11:14:36;;;;;;;0.50;0.50;;;;;;;15.24;85.52;100126.81;5074885;28;20127;-63
2023/09/24 11:17:13;;;;;;;0.82;0.80;;;;;;;15.18;85.81;100116.63;5075186;28;20496;-64
2023/09/24 11:19:49;;;;;;;0.68;0.68;;;;;;;15.18;85.90;100124.31;5074439;28;20127;-64
2023/09/24 11:23:13;;;;;;;;;;;;;;;;;;;;;
2023/09/24 11:30:15;;;;;;;0.30;0.30;;;;;;;15.26;85.84;100125.91;5017585;28;20042;-63
2023/09/24 11:36:16;;;;;;;0.40;0.40;;;;;;;15.24;85.73;100131.94;5075102;28;20040;-63
2023/09/24 11:38:45;;;;;;;0.70;0.70;;;;;;;15.32;85.92;100130.16;5074728;28;20094;-64
2023/09/24 11:41:15;;;;;;;0.40;0.40;;;;;;;15.32;86.43;100135.28;5074587;28;20045;-65
2023/09/24 11:43:44;;;;;;;0.55;0.55;;;;;;;15.39;86.33;100136.91;5027463;28;1363905;-65
2023/09/24 11:46:21;;;;;;;0.50;0.50;;;;;;;15.42;86.17;100129.16;5076062;28;20044;-65
2023/09/24 11:48:52;;;;;;;0.40;0.40;;;;;;;15.43;86.14;100133.41;5075776;28;20048;-63
2023/09/24 11:51:22;;;;;;;0.68;0.68;;;;;;;15.36;86.40;100131.78;5075973;28;20048;-64
2023/09/24 11:53:51;;;;;;;;;;;;;;;15.36;86.41;100134.38;5076065;28;20492;-64
2023/09/24 11:56:20;;;;;;;0.43;0.43;;;;;;;15.38;86.02;100140.34;5075882;28;19935;-63
2023/09/24 11:58:49;;;;;;;0.50;0.50;;;;;;;15.44;86.39;100137.69;5075560;28;20555;-63
2023/09/24 12:01:19;;;;;;;0.60;0.60;;;;;;;15.46;86.17;100133.41;5075576;28;20072;-63